createdAt,value
2023-05-19T00:00:40.370Z,92.53
2023-05-19T00:03:16.491Z,91.85
2023-05-19T00:05:46.173Z,92.77
2023-05-19T00:08:19.893Z,93.39
2023-05-19T00:10:54.499Z,93.15
2023-05-19T00:13:24.287Z,93.72
2023-05-19T00:15:52.506Z,94.28
2023-05-19T00:18:27.998Z,94.86
2023-05-19T00:23:35.035Z,95.93
2023-05-19T00:26:03.587Z,96.15
2023-05-19T00:28:30.183Z,96.46
2023-05-19T00:30:56.637Z,96.71
2023-05-19T00:33:26.579Z,97.00
2023-05-19T00:35:56.205Z,97.83
2023-05-19T00:38:24.684Z,97.69
2023-05-19T00:40:58.607Z,98.70
2023-05-19T00:43:27.658Z,98.96
2023-05-19T00:46:01.046Z,99.31
2023-05-19T00:48:28.052Z,99.42
2023-05-19T00:51:02.650Z,98.66
2023-05-19T00:53:29.605Z,98.58
2023-05-19T00:55:58.178Z,100.00
2023-05-19T00:58:30.156Z,100.00
2023-05-19T01:01:08.520Z,99.57
2023-05-19T01:03:36.061Z,100.00
2023-05-19T01:06:14.952Z,100.00
2023-05-19T01:11:28.398Z,100.00
2023-05-19T01:13:57.714Z,100.00
2023-05-19T01:16:32.432Z,100.00
2023-05-19T01:19:49.142Z,100.00
2023-05-19T01:22:43.252Z,100.00
2023-05-19T01:25:36.634Z,100.00
2023-05-19T01:28:25.998Z,100.00
2023-05-19T01:31:04.593Z,100.00
2023-05-19T01:33:33.891Z,100.00
2023-05-19T01:36:03.705Z,100.00
2023-05-19T01:38:30.325Z,100.00
2023-05-19T01:40:58.183Z,100.00
2023-05-19T01:43:27.672Z,100.00
2023-05-19T01:45:58.786Z,100.00
2023-05-19T01:48:29.508Z,100.00
2023-05-19T01:50:59.427Z,100.00
2023-05-19T01:53:28.814Z,100.00
2023-05-19T01:56:03.477Z,100.00
2023-05-19T01:58:46.544Z,100.00
2023-05-19T02:01:37.349Z,100.00
2023-05-19T02:04:20.202Z,100.00
2023-05-19T02:07:15.663Z,100.00
2023-05-19T02:10:14.338Z,100.00
2023-05-19T02:12:48.603Z,100.00
2023-05-19T02:15:24.333Z,100.00
2023-05-19T02:17:55.953Z,100.00
2023-05-19T02:20:28.195Z,100.00
2023-05-19T02:22:57.785Z,100.00
2023-05-19T02:25:28.416Z,100.00
2023-05-19T02:27:57.281Z,100.00
2023-05-19T02:30:23.686Z,100.00
2023-05-19T02:35:33.352Z,100.00
2023-05-19T02:37:59.805Z,100.00
2023-05-19T02:40:26.237Z,100.00
2023-05-19T02:42:52.740Z,100.00
2023-05-19T02:45:23.578Z,100.00
2023-05-19T02:47:50.021Z,100.00
2023-05-19T02:50:16.488Z,100.00
2023-05-19T02:52:48.114Z,100.00
2023-05-19T02:55:17.099Z,100.00
2023-05-19T02:57:43.917Z,100.00
2023-05-19T03:00:19.058Z,100.00
2023-05-19T03:02:46.191Z,100.00
2023-05-19T03:05:15.526Z,100.00
2023-05-19T03:07:41.917Z,100.00
2023-05-19T03:10:09.106Z,100.00
2023-05-19T03:12:38.845Z,100.00
2023-05-19T03:15:05.695Z,100.00
2023-05-19T03:17:37.260Z,100.00
2023-05-19T03:20:08.917Z,100.00
2023-05-19T03:22:35.386Z,100.00
2023-05-19T03:25:05.193Z,100.00
2023-05-19T03:27:34.694Z,100.00
2023-05-19T03:30:01.262Z,100.00
2023-05-19T03:32:36.302Z,100.00
2023-05-19T03:35:02.849Z,100.00
2023-05-19T03:37:38.813Z,100.00
2023-05-19T03:40:08.679Z,100.00
2023-05-19T03:42:40.304Z,100.00
2023-05-19T03:45:07.519Z,100.00
2023-05-19T03:47:37.723Z,100.00
2023-05-19T03:50:07.392Z,100.00
2023-05-19T03:52:41.099Z,100.00
2023-05-19T03:55:10.371Z,100.00
2023-05-19T03:57:40.294Z,100.00
2023-05-19T04:00:09.953Z,100.00
2023-05-19T04:02:36.838Z,100.00
2023-05-19T04:05:12.913Z,100.00
2023-05-19T04:07:39.374Z,100.00
2023-05-19T04:10:11.793Z,100.00
2023-05-19T04:12:38.412Z,100.00
2023-05-19T04:15:06.275Z,100.00
2023-05-19T04:17:42.193Z,100.00
2023-05-19T04:20:12.213Z,100.00
2023-05-19T04:22:39.843Z,100.00
2023-05-19T04:25:10.161Z,96.04
2023-05-19T04:27:42.151Z,91.31
2023-05-19T04:30:09.035Z,87.25
2023-05-19T04:32:39.287Z,82.90
2023-05-19T04:35:05.954Z,77.63
2023-05-19T04:37:32.317Z,75.18
2023-05-19T04:39:58.728Z,73.26
2023-05-19T04:42:29.235Z,75.74
2023-05-19T04:44:58.442Z,81.94
2023-05-19T04:50:13.525Z,81.69
2023-05-19T04:52:45.384Z,73.59
2023-05-19T04:55:15.606Z,67.45
2023-05-19T04:57:45.102Z,63.54
2023-05-19T05:03:01.055Z,61.28
2023-05-19T05:05:31.456Z,60.22
2023-05-19T05:16:26.113Z,58.30
2023-05-19T05:18:55.343Z,56.10
2023-05-19T05:21:23.087Z,55.00
2023-05-19T05:23:58.298Z,54.93
2023-05-19T05:26:35.709Z,54.39
2023-05-19T05:29:03.329Z,53.50
2023-05-19T05:31:30.065Z,52.83
2023-05-19T05:33:59.768Z,52.87
2023-05-19T05:36:26.164Z,54.85
2023-05-19T05:38:52.636Z,57.51
2023-05-19T05:41:24.933Z,59.34
2023-05-19T05:43:55.119Z,58.42
2023-05-19T05:46:21.649Z,54.62
2023-05-19T05:48:48.745Z,51.59
2023-05-19T05:51:15.494Z,50.32
2023-05-19T05:53:45.179Z,50.02
2023-05-19T05:56:17.645Z,47.98
2023-05-19T05:58:44.285Z,47.92
2023-05-19T06:01:20.891Z,49.44
2023-05-19T06:03:47.339Z,50.76
2023-05-19T06:06:26.887Z,52.60
2023-05-19T06:08:58.449Z,51.50
2023-05-19T06:11:28.848Z,50.28
2023-05-19T06:14:00.056Z,51.12
2023-05-19T06:16:29.722Z,54.92
2023-05-19T06:18:56.320Z,58.09
2023-05-19T06:21:25.899Z,59.37
2023-05-19T06:23:55.463Z,59.74
2023-05-19T06:26:29.253Z,61.84
2023-05-19T06:28:58.869Z,63.08
2023-05-19T06:31:40.964Z,63.60
2023-05-19T06:34:19.151Z,64.75
2023-05-19T06:36:45.671Z,65.01
2023-05-19T06:39:18.301Z,64.28
2023-05-19T06:41:48.679Z,64.66
2023-05-19T06:44:15.616Z,65.06
2023-05-19T06:46:42.056Z,65.25
2023-05-19T06:49:08.576Z,65.06
2023-05-19T06:51:35.332Z,65.22
2023-05-19T06:54:06.385Z,65.48
2023-05-19T06:56:36.743Z,65.59
2023-05-19T07:01:50.120Z,63.41
2023-05-19T07:04:16.823Z,63.93
2023-05-19T07:06:43.263Z,62.40
2023-05-19T07:09:19.636Z,62.42
2023-05-19T07:11:46.472Z,62.02
2023-05-19T07:14:15.696Z,60.73
2023-05-19T07:16:45.017Z,59.78
2023-05-19T07:19:11.559Z,60.84
2023-05-19T07:21:49.457Z,61.22
2023-05-19T07:24:28.228Z,59.31
2023-05-19T07:26:54.629Z,59.79
2023-05-19T07:29:26.202Z,59.67
2023-05-19T07:31:54.274Z,60.39
2023-05-19T07:34:21.911Z,58.98
2023-05-19T07:36:48.351Z,57.66
2023-05-19T07:39:18.256Z,56.69
2023-05-19T07:41:52.052Z,55.83
2023-05-19T07:44:21.955Z,55.49
2023-05-19T07:46:48.431Z,55.55
2023-05-19T07:49:16.541Z,55.58
2023-05-19T07:51:46.341Z,55.48
2023-05-19T07:54:15.146Z,54.96
2023-05-19T07:56:41.901Z,54.80
2023-05-19T07:59:08.346Z,54.86
2023-05-19T08:01:34.811Z,53.25
2023-05-19T08:04:05.287Z,52.39
2023-05-19T08:06:31.863Z,52.72
2023-05-19T08:08:58.369Z,52.56
2023-05-19T08:11:27.270Z,51.77
2023-05-19T08:13:56.481Z,51.00
2023-05-19T08:16:23.090Z,50.52
2023-05-19T08:21:32.821Z,49.75
2023-05-19T08:24:02.676Z,47.70
2023-05-19T08:26:29.180Z,47.90
2023-05-19T08:28:58.229Z,48.95
2023-05-19T08:31:27.770Z,48.13
2023-05-19T08:33:54.154Z,48.34
2023-05-19T08:36:24.802Z,48.23
2023-05-19T08:38:55.020Z,47.59
2023-05-19T08:41:25.681Z,47.86
2023-05-19T08:43:55.359Z,45.81
2023-05-19T08:49:14.988Z,44.43
2023-05-19T08:52:03.385Z,43.97
2023-05-19T08:54:44.732Z,43.77
2023-05-19T08:57:14.618Z,42.92
2023-05-19T08:59:44.210Z,43.18
2023-05-19T09:02:17.832Z,42.86
2023-05-19T09:04:48.057Z,42.83
2023-05-19T09:07:15.543Z,42.14
2023-05-19T09:09:48.827Z,42.69
2023-05-19T09:12:15.354Z,43.00
2023-05-19T09:14:52.307Z,42.48
2023-05-19T09:17:18.963Z,43.01
2023-05-19T09:19:54.386Z,42.86
2023-05-19T09:22:21.140Z,42.27
2023-05-19T09:24:57.160Z,41.52
2023-05-19T09:27:23.660Z,41.30
2023-05-19T09:29:51.190Z,40.26
2023-05-19T09:32:29.539Z,41.30
2023-05-19T09:34:57.053Z,41.32
2023-05-19T09:37:27.849Z,40.89
2023-05-19T09:39:54.749Z,41.28
2023-05-19T09:42:27.711Z,42.06
2023-05-19T09:45:03.431Z,42.08
2023-05-19T09:47:53.891Z,42.32
2023-05-19T09:50:26.112Z,40.22
2023-05-19T09:52:52.998Z,40.88
2023-05-19T09:58:05.107Z,41.79
2023-05-19T10:00:32.805Z,42.71
2023-05-19T10:03:05.047Z,41.89
2023-05-19T10:05:41.648Z,42.80
2023-05-19T10:08:10.734Z,41.35
2023-05-19T10:10:46.192Z,41.10
2023-05-19T10:13:14.859Z,41.97
2023-05-19T10:15:57.094Z,41.41
2023-05-19T10:18:29.558Z,41.40
2023-05-19T10:23:39.579Z,40.31
2023-05-19T10:26:10.193Z,40.39
2023-05-19T10:28:43.507Z,41.36
2023-05-19T10:31:14.220Z,40.54
2023-05-19T10:34:01.095Z,40.78
2023-05-19T10:36:31.058Z,39.77
2023-05-19T10:39:13.796Z,40.01
2023-05-19T10:41:49.952Z,39.29
2023-05-19T10:44:37.182Z,39.78
2023-05-19T10:47:07.022Z,40.37
2023-05-19T10:49:40.090Z,39.37
2023-05-19T10:52:26.933Z,40.78
2023-05-19T10:54:54.589Z,40.10
2023-05-19T10:57:33.924Z,39.47
2023-05-19T11:00:31.287Z,40.07
2023-05-19T11:03:14.221Z,40.15
2023-05-19T11:05:43.389Z,40.32
2023-05-19T11:08:14.409Z,39.65
2023-05-19T11:10:59.890Z,37.45
2023-05-19T11:15:58.783Z,36.96
2023-05-19T11:18:25.254Z,37.41
2023-05-19T11:20:58.313Z,36.14
2023-05-19T11:23:39.560Z,36.67
2023-05-19T11:26:07.985Z,36.50
2023-05-19T11:28:41.058Z,35.57
2023-05-19T11:31:10.960Z,36.71
2023-05-19T11:33:42.345Z,36.72
2023-05-19T11:36:12.574Z,36.19
2023-05-19T11:38:41.559Z,36.47
2023-05-19T11:41:09.162Z,36.82
2023-05-19T11:43:35.686Z,36.60
2023-05-19T11:46:02.141Z,36.66
2023-05-19T11:48:32.819Z,36.70
2023-05-19T11:51:00.958Z,35.60
2023-05-19T11:56:17.882Z,34.51
2023-05-19T11:58:44.388Z,34.95
2023-05-19T12:01:11.179Z,33.56
2023-05-19T12:03:45.932Z,34.08
2023-05-19T12:09:03.822Z,33.26
2023-05-19T12:11:34.346Z,34.57
2023-05-19T12:14:01.958Z,34.86
2023-05-19T12:16:35.434Z,33.60
2023-05-19T12:19:06.495Z,31.91
2023-05-19T12:21:36.626Z,32.44
2023-05-19T12:24:03.401Z,33.63
2023-05-19T12:26:40.137Z,34.29
2023-05-19T12:29:07.228Z,33.31
2023-05-19T12:31:38.084Z,33.79
2023-05-19T12:34:09.161Z,34.54
2023-05-19T12:36:38.189Z,33.96
2023-05-19T12:39:07.849Z,33.83
2023-05-19T12:41:42.001Z,34.41
2023-05-19T12:44:16.149Z,38.03
2023-05-19T12:46:45.986Z,39.09
2023-05-19T12:49:12.598Z,38.73
2023-05-19T12:51:39.071Z,37.92
2023-05-19T12:54:14.617Z,37.23
2023-05-19T12:56:59.472Z,33.98
2023-05-19T12:59:37.401Z,35.51
2023-05-19T13:02:04.881Z,35.16
2023-05-19T13:04:35.103Z,35.91
2023-05-19T13:07:01.769Z,36.02
2023-05-19T13:09:28.909Z,36.07
2023-05-19T13:12:05.555Z,36.24
2023-05-19T13:14:32.221Z,35.25
2023-05-19T13:17:01.642Z,35.77
2023-05-19T13:19:31.368Z,35.93
2023-05-19T13:21:59.311Z,37.52
2023-05-19T13:24:26.290Z,36.31
2023-05-19T13:26:53.946Z,36.52
2023-05-19T13:29:21.082Z,37.36
2023-05-19T13:31:50.573Z,36.44
2023-05-19T13:34:18.206Z,36.06
2023-05-19T13:36:48.774Z,37.42
2023-05-19T13:39:22.608Z,37.30
2023-05-19T13:41:55.029Z,34.34
2023-05-19T13:44:25.773Z,33.69
2023-05-19T13:47:07.231Z,34.17
2023-05-19T13:52:22.113Z,37.17
2023-05-19T13:54:49.083Z,36.26
2023-05-19T13:57:23.793Z,37.84
2023-05-19T14:00:02.568Z,37.05
2023-05-19T14:02:33.910Z,37.49
2023-05-19T14:05:00.501Z,37.76
2023-05-19T14:07:30.626Z,37.77
2023-05-19T14:09:57.190Z,36.95
2023-05-19T14:12:30.970Z,35.77
2023-05-19T14:17:49.283Z,34.69
2023-05-19T14:20:22.567Z,35.31
2023-05-19T14:22:48.957Z,35.93
2023-05-19T14:25:25.792Z,35.73
2023-05-19T14:27:52.233Z,36.30
2023-05-19T14:30:18.611Z,35.56
2023-05-19T14:32:45.013Z,35.77
2023-05-19T14:35:11.490Z,35.48
2023-05-19T14:37:37.930Z,34.31
2023-05-19T14:40:08.445Z,34.92
2023-05-19T14:42:34.847Z,35.19
2023-05-19T14:45:01.284Z,35.77
2023-05-19T14:47:28.913Z,35.92
2023-05-19T14:49:59.958Z,35.11
2023-05-19T14:52:26.403Z,35.71
2023-05-19T14:54:56.313Z,36.64
2023-05-19T14:57:25.927Z,35.22
2023-05-19T14:59:55.023Z,35.22
2023-05-19T15:02:21.404Z,35.79
2023-05-19T15:04:47.946Z,36.72
2023-05-19T15:07:14.382Z,37.20
2023-05-19T15:09:43.486Z,37.70
2023-05-19T15:12:13.035Z,35.91
2023-05-19T15:14:39.762Z,36.50
2023-05-19T15:17:08.742Z,35.01
2023-05-19T15:19:38.066Z,35.33
2023-05-19T15:22:20.650Z,35.31
2023-05-19T15:24:51.383Z,35.30
2023-05-19T15:27:21.103Z,34.98
2023-05-19T15:29:50.220Z,35.32
2023-05-19T15:32:22.697Z,35.61
2023-05-19T15:34:49.206Z,36.25
2023-05-19T15:37:19.077Z,36.97
2023-05-19T15:39:48.586Z,36.67
2023-05-19T15:42:22.316Z,36.37
2023-05-19T15:44:51.532Z,36.06
2023-05-19T15:47:18.008Z,36.72
2023-05-19T15:49:48.076Z,36.31
2023-05-19T15:52:18.977Z,36.01
2023-05-19T15:54:53.874Z,36.84
2023-05-19T15:57:20.344Z,36.38
2023-05-19T16:02:29.902Z,36.68
2023-05-19T16:04:56.732Z,36.45
2023-05-19T16:07:27.268Z,37.04
2023-05-19T16:10:06.982Z,36.80
2023-05-19T16:12:44.556Z,36.70
2023-05-19T16:15:11.100Z,36.24
2023-05-19T16:17:42.202Z,37.52
2023-05-19T16:20:10.594Z,37.38
2023-05-19T16:22:37.075Z,37.24
2023-05-19T16:25:07.456Z,37.27
2023-05-19T16:27:33.924Z,36.67
2023-05-19T16:30:01.194Z,36.69
2023-05-19T16:32:36.705Z,36.63
2023-05-19T16:35:03.513Z,37.26
2023-05-19T16:37:33.726Z,37.95
2023-05-19T16:40:00.263Z,37.30
2023-05-19T16:42:27.104Z,37.75
2023-05-19T16:44:56.391Z,37.76
2023-05-19T16:47:26.162Z,37.91
2023-05-19T16:49:56.339Z,38.19
2023-05-19T16:52:22.768Z,38.18
2023-05-19T16:54:49.171Z,38.02
2023-05-19T16:57:15.826Z,38.20
2023-05-19T16:59:44.993Z,38.30
2023-05-19T17:02:14.300Z,38.17
2023-05-19T17:04:40.777Z,38.08
2023-05-19T17:07:17.684Z,37.36
2023-05-19T17:09:44.665Z,38.33
2023-05-19T17:12:14.085Z,38.61
2023-05-19T17:14:42.244Z,38.59
2023-05-19T17:17:10.215Z,38.97
2023-05-19T17:19:42.934Z,38.58
2023-05-19T17:22:09.394Z,38.63
2023-05-19T17:24:45.803Z,38.82
2023-05-19T17:27:12.237Z,38.45
2023-05-19T17:29:41.822Z,38.59
2023-05-19T17:32:11.413Z,38.74
2023-05-19T17:34:41.600Z,39.07
2023-05-19T17:37:08.080Z,39.32
2023-05-19T17:39:34.535Z,39.54
2023-05-19T17:42:01.051Z,39.99
2023-05-19T17:44:36.818Z,39.85
2023-05-19T17:47:03.512Z,40.46
2023-05-19T17:49:34.136Z,40.52
2023-05-19T17:52:00.849Z,40.09
2023-05-19T17:54:27.492Z,40.57
2023-05-19T17:57:07.711Z,40.53
2023-05-19T17:59:40.810Z,40.31
2023-05-19T18:02:07.889Z,40.00
2023-05-19T18:04:34.729Z,40.79
2023-05-19T18:07:04.907Z,40.63
2023-05-19T18:09:36.379Z,41.08
2023-05-19T18:12:07.014Z,41.44
2023-05-19T18:14:36.173Z,41.60
2023-05-19T18:17:02.981Z,41.97
2023-05-19T18:19:36.654Z,42.04
2023-05-19T18:22:03.544Z,41.98
2023-05-19T18:24:34.005Z,41.71
2023-05-19T18:27:03.378Z,41.89
2023-05-19T18:29:36.454Z,42.05
2023-05-19T18:32:06.158Z,42.32
2023-05-19T18:34:32.770Z,42.19
2023-05-19T18:37:02.226Z,42.33
2023-05-19T18:39:32.567Z,42.67
2023-05-19T18:42:01.839Z,43.08
2023-05-19T18:44:31.049Z,43.09
2023-05-19T18:46:57.439Z,43.27
2023-05-19T18:49:32.216Z,43.42
2023-05-19T18:51:58.667Z,43.92
2023-05-19T18:54:25.237Z,44.03
2023-05-19T18:56:57.488Z,44.13
2023-05-19T18:59:25.683Z,44.53
2023-05-19T19:01:55.341Z,44.84
2023-05-19T19:04:22.404Z,44.92
2023-05-19T19:06:49.052Z,45.18
2023-05-19T19:09:19.068Z,45.30
2023-05-19T19:11:45.527Z,45.68
2023-05-19T19:14:11.893Z,45.83
2023-05-19T19:16:44.594Z,45.99
2023-05-19T19:19:14.991Z,46.13
2023-05-19T19:21:44.147Z,46.30
2023-05-19T19:24:13.694Z,46.62
2023-05-19T19:26:43.001Z,46.82
2023-05-19T19:29:18.093Z,47.02
2023-05-19T19:31:44.715Z,47.04
2023-05-19T19:34:18.334Z,47.42
2023-05-19T19:36:44.849Z,47.51
2023-05-19T19:39:14.588Z,47.78
2023-05-19T19:41:44.346Z,48.06
2023-05-19T19:44:18.325Z,48.36
2023-05-19T19:46:47.599Z,48.27
2023-05-19T19:49:19.569Z,48.83
2023-05-19T19:51:48.912Z,48.89
2023-05-19T19:54:15.512Z,48.86
2023-05-19T19:56:51.364Z,49.02
2023-05-19T19:59:17.891Z,49.14
2023-05-19T20:01:52.927Z,49.15
2023-05-19T20:04:19.711Z,49.30
2023-05-19T20:06:46.405Z,49.52
2023-05-19T20:09:18.785Z,49.63
2023-05-19T20:11:45.190Z,49.71
2023-05-19T20:14:14.964Z,50.35
2023-05-19T20:16:45.001Z,50.33
2023-05-19T20:19:15.197Z,50.54
2023-05-19T20:21:44.197Z,50.56
2023-05-19T20:24:10.686Z,50.88
2023-05-19T20:29:19.059Z,54.68
2023-05-19T20:31:51.273Z,56.86
2023-05-19T20:34:17.752Z,58.09
2023-05-19T20:39:31.175Z,60.78
2023-05-19T20:41:57.576Z,62.12
2023-05-19T20:44:24.079Z,63.73
2023-05-19T20:46:54.766Z,64.88
2023-05-19T20:49:21.174Z,66.27
2023-05-19T20:51:47.550Z,68.07
2023-05-19T20:54:27.100Z,68.84
2023-05-19T20:56:56.247Z,69.28
2023-05-19T20:59:25.182Z,71.50
2023-05-19T21:01:51.640Z,72.19
2023-05-19T21:04:23.906Z,73.10
2023-05-19T21:06:50.315Z,73.00
2023-05-19T21:09:16.851Z,73.19
2023-05-19T21:11:43.346Z,73.05
2023-05-19T21:14:10.110Z,73.78
2023-05-19T21:16:38.756Z,73.58
2023-05-19T21:19:06.792Z,74.02
2023-05-19T21:21:42.679Z,73.86
2023-05-19T21:24:15.421Z,74.54
2023-05-19T21:29:17.941Z,74.72
2023-05-19T21:31:44.326Z,75.04
2023-05-19T21:34:10.803Z,74.82
2023-05-19T21:36:39.770Z,75.42
2023-05-19T21:39:09.124Z,75.02
2023-05-19T21:41:35.720Z,74.67
2023-05-19T21:44:04.959Z,74.16
2023-05-19T21:46:34.518Z,74.82
2023-05-19T21:49:09.501Z,74.94
2023-05-19T21:51:36.600Z,74.86
2023-05-19T21:54:03.030Z,74.45
2023-05-19T21:56:38.701Z,74.44
2023-05-19T21:59:05.322Z,74.06
2023-05-19T22:01:35.606Z,73.53
2023-05-19T22:04:05.227Z,72.95
2023-05-19T22:06:38.953Z,72.28
2023-05-19T22:09:05.439Z,71.96
2023-05-19T22:11:31.880Z,71.70
2023-05-19T22:14:07.284Z,71.96
2023-05-19T22:16:34.065Z,71.53
2023-05-19T22:19:05.720Z,72.01
2023-05-19T22:21:32.335Z,71.67
2023-05-19T22:23:58.787Z,71.88
2023-05-19T22:26:33.632Z,71.59
2023-05-19T22:29:00.004Z,71.82
2023-05-19T22:31:28.722Z,71.66
2023-05-19T22:34:02.606Z,71.75
2023-05-19T22:36:31.633Z,72.01
2023-05-19T22:39:00.617Z,72.20
2023-05-19T22:41:27.026Z,72.07
2023-05-19T22:44:03.823Z,72.28
2023-05-19T22:46:30.243Z,71.99
2023-05-19T22:48:56.664Z,72.25
2023-05-19T22:51:31.157Z,72.64
2023-05-19T22:54:04.012Z,73.03
2023-05-19T22:56:33.977Z,73.26
2023-05-19T22:59:04.617Z,73.58
2023-05-19T23:01:33.441Z,73.82
2023-05-19T23:03:59.842Z,74.62
2023-05-19T23:11:59.093Z,75.60
2023-05-19T23:14:25.965Z,75.91
2023-05-19T23:16:56.210Z,75.96
2023-05-19T23:19:25.873Z,76.16
2023-05-19T23:21:52.892Z,76.55
2023-05-19T23:24:22.296Z,76.76
2023-05-19T23:26:49.183Z,77.48
2023-05-19T23:29:15.827Z,77.91
2023-05-19T23:31:46.739Z,77.69
2023-05-19T23:34:13.432Z,77.17
2023-05-19T23:36:39.854Z,77.65
2023-05-19T23:39:09.162Z,78.44
2023-05-19T23:41:38.656Z,78.33
2023-05-19T23:44:07.506Z,78.67
2023-05-19T23:46:40.032Z,78.56
2023-05-19T23:49:06.500Z,79.19
2023-05-19T23:51:35.466Z,79.36
2023-05-19T23:54:04.698Z,79.64
2023-05-19T23:56:31.485Z,79.54
2023-05-19T23:59:00.597Z,79.63
